createdAt,value
2018-07-22T00:00:00.036Z,25.07
2018-07-22T00:02:27.885Z,25.04
2018-07-22T00:04:55.705Z,24.88
2018-07-22T00:07:23.729Z,24.94
2018-07-22T00:09:51.502Z,25.00
2018-07-22T00:12:19.260Z,24.96
2018-07-22T00:14:47.025Z,24.69
2018-07-22T00:17:14.853Z,24.69
2018-07-22T00:19:42.656Z,24.78
2018-07-22T00:22:10.462Z,24.77
2018-07-22T00:24:38.447Z,24.76
2018-07-22T00:27:06.551Z,24.88
2018-07-22T00:29:34.447Z,24.92
2018-07-22T00:32:02.287Z,24.98
2018-07-22T00:34:30.063Z,25.02
2018-07-22T00:36:57.842Z,24.93
2018-07-22T00:39:25.626Z,24.89
2018-07-22T00:41:53.386Z,24.80
2018-07-22T00:44:21.142Z,24.58
2018-07-22T00:46:48.942Z,24.63
2018-07-22T00:49:16.791Z,24.53
2018-07-22T00:51:44.579Z,24.53
2018-07-22T00:54:12.398Z,24.55
2018-07-22T00:56:40.187Z,24.47
2018-07-22T00:59:07.996Z,24.45
2018-07-22T01:01:35.870Z,24.36
2018-07-22T01:04:03.674Z,24.41
2018-07-22T01:06:31.751Z,24.41
2018-07-22T01:08:59.534Z,24.34
2018-07-22T01:11:27.333Z,24.27
2018-07-22T01:13:55.138Z,24.29
2018-07-22T01:16:22.956Z,24.31
2018-07-22T01:18:50.782Z,24.18
2018-07-22T01:21:21.325Z,24.30
2018-07-22T01:23:49.154Z,24.14
2018-07-22T01:26:16.954Z,24.15
2018-07-22T01:28:44.736Z,24.02
2018-07-22T01:31:12.510Z,24.10
2018-07-22T01:33:40.282Z,23.97
2018-07-22T01:36:08.047Z,23.87
2018-07-22T01:38:35.894Z,23.98
2018-07-22T01:41:03.727Z,23.94
2018-07-22T01:43:31.502Z,24.12
2018-07-22T01:45:59.294Z,24.19
2018-07-22T01:48:27.070Z,24.04
2018-07-22T01:50:54.885Z,24.03
2018-07-22T01:53:22.637Z,24.19
2018-07-22T01:55:50.398Z,24.18
2018-07-22T01:58:18.167Z,24.30
2018-07-22T02:00:45.973Z,24.08
2018-07-22T02:03:13.761Z,24.04
2018-07-22T02:05:41.562Z,23.98
2018-07-22T02:08:09.313Z,24.08
2018-07-22T02:10:37.157Z,24.07
2018-07-22T02:13:05.095Z,24.14
2018-07-22T02:15:32.862Z,24.15
2018-07-22T02:18:00.621Z,24.16
2018-07-22T02:20:28.378Z,24.08
2018-07-22T02:22:56.149Z,24.23
2018-07-22T02:25:23.918Z,24.03
2018-07-22T02:27:51.710Z,24.05
2018-07-22T02:30:19.640Z,24.08
2018-07-22T02:32:47.381Z,24.06
2018-07-22T02:35:15.142Z,23.93
2018-07-22T02:37:42.906Z,23.73
2018-07-22T02:40:10.685Z,23.78
2018-07-22T02:42:38.498Z,23.78
2018-07-22T02:45:06.353Z,23.75
2018-07-22T02:47:34.120Z,23.76
2018-07-22T02:50:01.871Z,23.82
2018-07-22T02:52:29.644Z,23.84
2018-07-22T02:54:57.460Z,23.78
2018-07-22T02:57:25.214Z,23.71
2018-07-22T02:59:52.984Z,23.73
2018-07-22T03:02:20.766Z,23.69
2018-07-22T03:04:48.530Z,23.72
2018-07-22T03:07:16.334Z,23.60
2018-07-22T03:09:44.093Z,23.49
2018-07-22T03:12:11.877Z,23.81
2018-07-22T03:14:39.697Z,24.05
2018-07-22T03:17:09.413Z,24.68
2018-07-22T03:19:37.238Z,25.14
2018-07-22T03:22:05.114Z,24.87
2018-07-22T03:24:33.021Z,25.45
2018-07-22T03:27:00.760Z,26.02
2018-07-22T03:29:28.508Z,26.84
2018-07-22T03:31:56.314Z,27.96
2018-07-22T03:34:24.065Z,28.79
2018-07-22T03:36:51.826Z,29.76
2018-07-22T03:39:19.574Z,30.66
2018-07-22T03:41:47.399Z,30.50
2018-07-22T03:44:15.197Z,31.18
2018-07-22T03:46:42.948Z,32.06
2018-07-22T03:49:10.718Z,32.71
2018-07-22T03:51:38.481Z,31.99
2018-07-22T03:54:06.281Z,32.94
2018-07-22T03:56:34.120Z,33.32
2018-07-22T03:59:01.918Z,33.89
2018-07-22T04:01:29.942Z,34.63
2018-07-22T04:03:57.732Z,34.70
2018-07-22T04:06:25.506Z,33.73
2018-07-22T04:08:53.303Z,34.54
2018-07-22T04:11:21.397Z,35.28
2018-07-22T04:13:49.169Z,35.72
2018-07-22T04:16:16.963Z,35.98
2018-07-22T04:18:49.417Z,35.47
2018-07-22T04:21:17.261Z,35.98
2018-07-22T04:23:45.032Z,36.38
2018-07-22T04:26:12.826Z,36.59
2018-07-22T04:28:40.614Z,36.87
2018-07-22T04:31:08.411Z,37.33
2018-07-22T04:33:36.250Z,37.80
2018-07-22T04:36:04.121Z,39.08
2018-07-22T04:38:31.917Z,40.15
2018-07-22T04:40:59.774Z,39.59
2018-07-22T04:43:27.533Z,39.19
2018-07-22T04:45:55.338Z,39.06
2018-07-22T04:48:23.129Z,39.98
2018-07-22T04:50:50.889Z,39.10
2018-07-22T04:53:18.682Z,39.22
2018-07-22T04:55:46.533Z,39.03
2018-07-22T04:58:14.378Z,39.52
2018-07-22T05:00:42.722Z,39.21
2018-07-22T05:03:10.521Z,39.79
2018-07-22T05:05:38.300Z,39.91
2018-07-22T05:08:06.122Z,38.02
2018-07-22T05:10:33.931Z,38.22
2018-07-22T05:13:01.718Z,39.05
2018-07-22T05:15:29.510Z,38.57
2018-07-22T05:17:57.310Z,38.57
2018-07-22T05:20:25.669Z,37.06
2018-07-22T05:22:53.483Z,37.98
2018-07-22T05:25:21.258Z,38.82
2018-07-22T05:27:49.175Z,39.04
2018-07-22T05:30:16.994Z,40.22
2018-07-22T05:32:44.790Z,40.73
2018-07-22T05:35:12.568Z,41.87
2018-07-22T05:37:40.353Z,41.60
2018-07-22T05:40:08.165Z,41.67
2018-07-22T05:42:35.986Z,42.43
2018-07-22T05:45:03.921Z,42.53
2018-07-22T05:47:31.723Z,42.53
2018-07-22T05:49:59.480Z,43.25
2018-07-22T05:52:27.248Z,43.83
2018-07-22T05:54:55.032Z,41.61
2018-07-22T05:57:22.832Z,39.62
2018-07-22T05:59:50.683Z,38.09
2018-07-22T06:02:18.534Z,38.53
2018-07-22T06:04:46.372Z,38.51
2018-07-22T06:07:14.185Z,38.15
2018-07-22T06:09:41.961Z,37.91
2018-07-22T06:12:09.777Z,37.89
2018-07-22T06:14:37.545Z,36.98
2018-07-22T06:17:05.358Z,37.41
2018-07-22T06:19:33.196Z,37.20
2018-07-22T06:22:01.044Z,37.16
2018-07-22T06:24:28.865Z,37.10
2018-07-22T06:26:56.672Z,37.04
2018-07-22T06:29:24.441Z,38.47
2018-07-22T06:31:52.229Z,37.54
2018-07-22T06:34:20.038Z,38.21
2018-07-22T06:36:47.837Z,38.81
2018-07-22T06:39:15.661Z,39.50
2018-07-22T06:41:44.128Z,40.44
2018-07-22T06:44:11.918Z,40.43
2018-07-22T06:46:39.794Z,40.63
2018-07-22T06:49:07.723Z,40.92
2018-07-22T06:51:35.604Z,40.57
2018-07-22T06:54:03.473Z,39.21
2018-07-22T06:56:31.276Z,39.45
2018-07-22T06:58:59.066Z,39.62
2018-07-22T07:01:26.908Z,40.24
2018-07-22T07:03:54.774Z,39.31
2018-07-22T07:06:22.891Z,38.31
2018-07-22T07:08:50.711Z,38.23
2018-07-22T07:11:18.566Z,38.94
2018-07-22T07:13:46.366Z,38.22
2018-07-22T07:16:14.283Z,38.14
2018-07-22T07:18:42.073Z,36.20
2018-07-22T07:21:09.860Z,35.60
2018-07-22T07:23:37.785Z,35.09
2018-07-22T07:26:05.711Z,34.92
2018-07-22T07:28:33.499Z,35.27
2018-07-22T07:31:01.309Z,34.38
2018-07-22T07:33:29.169Z,34.07
2018-07-22T07:35:56.930Z,33.55
2018-07-22T07:38:24.702Z,34.18
2018-07-22T07:40:52.529Z,34.64
2018-07-22T07:43:20.297Z,35.01
2018-07-22T07:45:48.086Z,35.46
2018-07-22T07:48:15.916Z,36.08
2018-07-22T07:50:44.002Z,35.25
2018-07-22T07:53:11.806Z,35.78
2018-07-22T07:55:39.609Z,35.04
2018-07-22T07:58:07.424Z,34.96
2018-07-22T08:00:35.227Z,35.58
2018-07-22T08:03:03.053Z,35.92
2018-07-22T08:05:30.942Z,36.25
2018-07-22T08:07:58.767Z,36.52
2018-07-22T08:10:26.639Z,37.23
2018-07-22T08:12:54.430Z,36.58
2018-07-22T08:15:22.225Z,35.65
2018-07-22T08:17:50.098Z,35.66
2018-07-22T08:20:17.917Z,35.51
2018-07-22T08:22:45.766Z,35.46
2018-07-22T08:25:13.670Z,34.99
2018-07-22T08:27:41.473Z,35.09
2018-07-22T08:30:09.379Z,36.07
2018-07-22T08:32:37.173Z,35.93
2018-07-22T08:35:05.163Z,35.17
2018-07-22T08:37:32.998Z,35.11
2018-07-22T08:40:00.815Z,35.43
2018-07-22T08:42:28.638Z,36.73
2018-07-22T08:44:56.429Z,37.36
2018-07-22T08:47:24.254Z,36.48
2018-07-22T08:49:52.039Z,36.47
2018-07-22T08:52:19.817Z,35.47
2018-07-22T08:54:47.627Z,36.03
2018-07-22T08:57:15.435Z,35.65
2018-07-22T08:59:43.254Z,35.80
2018-07-22T09:02:11.131Z,35.33
2018-07-22T09:04:38.950Z,35.67
2018-07-22T09:07:06.766Z,35.72
2018-07-22T09:09:34.549Z,36.10
2018-07-22T09:12:02.407Z,36.09
2018-07-22T09:14:30.201Z,36.89
2018-07-22T09:16:58.025Z,36.71
2018-07-22T09:19:25.836Z,37.20
2018-07-22T09:21:53.635Z,36.75
2018-07-22T09:24:21.566Z,36.51
2018-07-22T09:26:49.417Z,36.28
2018-07-22T09:29:17.214Z,36.01
2018-07-22T09:31:45.063Z,36.39
2018-07-22T09:34:12.911Z,36.81
2018-07-22T09:36:40.746Z,36.77
2018-07-22T09:39:09.896Z,36.07
2018-07-22T09:41:37.739Z,35.75
2018-07-22T09:44:05.609Z,36.60
2018-07-22T09:46:33.442Z,37.48
2018-07-22T09:49:01.257Z,36.88
2018-07-22T09:51:29.194Z,37.20
2018-07-22T09:53:57.007Z,37.48
2018-07-22T09:56:24.810Z,36.71
2018-07-22T09:58:52.598Z,37.21
2018-07-22T10:01:20.436Z,36.87
2018-07-22T10:03:48.249Z,37.28
2018-07-22T10:06:16.039Z,37.28
2018-07-22T10:08:43.875Z,37.00
2018-07-22T10:11:11.797Z,36.91
2018-07-22T10:13:39.608Z,37.26
2018-07-22T10:16:07.783Z,37.10
2018-07-22T10:18:35.567Z,36.87
2018-07-22T10:21:03.426Z,36.82
2018-07-22T10:23:31.235Z,36.91
2018-07-22T10:25:59.047Z,36.68
2018-07-22T10:28:26.842Z,37.28
2018-07-22T10:30:54.671Z,38.09
2018-07-22T10:33:22.480Z,37.46
2018-07-22T10:35:50.676Z,38.31
2018-07-22T10:38:18.473Z,37.51
2018-07-22T10:40:46.619Z,37.32
2018-07-22T10:43:14.411Z,37.85
2018-07-22T10:45:42.224Z,38.29
2018-07-22T10:48:10.059Z,38.22
2018-07-22T10:50:37.910Z,37.65
2018-07-22T10:53:05.777Z,36.91
2018-07-22T10:55:33.585Z,36.39
2018-07-22T10:58:01.376Z,36.45
2018-07-22T11:00:29.187Z,37.82
2018-07-22T11:02:56.989Z,37.98
2018-07-22T11:05:24.856Z,38.21
2018-07-22T11:07:53.525Z,38.97
2018-07-22T11:10:21.317Z,38.52
2018-07-22T11:12:49.139Z,38.23
2018-07-22T11:15:16.925Z,38.23
2018-07-22T11:17:44.780Z,38.71
2018-07-22T11:20:12.568Z,39.33
2018-07-22T11:22:40.685Z,38.80
2018-07-22T11:25:08.486Z,38.52
2018-07-22T11:27:36.263Z,38.64
2018-07-22T11:30:04.754Z,38.23
2018-07-22T11:32:32.567Z,38.33
2018-07-22T11:35:00.371Z,37.97
2018-07-22T11:37:28.185Z,38.03
2018-07-22T11:39:55.950Z,38.14
2018-07-22T11:42:23.733Z,38.38
2018-07-22T11:44:51.561Z,37.78
2018-07-22T11:47:20.067Z,38.38
2018-07-22T11:49:47.870Z,39.00
2018-07-22T11:52:15.690Z,39.93
2018-07-22T11:54:43.462Z,40.10
2018-07-22T11:57:11.624Z,40.05
2018-07-22T11:59:39.402Z,39.75
2018-07-22T12:02:07.174Z,40.10
2018-07-22T12:04:34.961Z,40.09
2018-07-22T12:07:02.739Z,38.80
2018-07-22T12:09:30.554Z,38.82
2018-07-22T12:11:58.313Z,38.94
2018-07-22T12:14:26.130Z,38.65
2018-07-22T12:16:53.902Z,39.24
2018-07-22T12:19:21.682Z,38.85
2018-07-22T12:21:49.503Z,38.99
2018-07-22T12:24:17.287Z,39.26
2018-07-22T12:26:45.059Z,39.50
2018-07-22T12:29:12.870Z,39.07
2018-07-22T12:31:40.934Z,39.06
2018-07-22T12:34:08.756Z,39.24
2018-07-22T12:36:36.781Z,39.10
2018-07-22T12:39:07.814Z,39.13
2018-07-22T12:41:35.598Z,38.74
2018-07-22T12:44:03.389Z,37.82
2018-07-22T12:46:31.255Z,38.00
2018-07-22T12:48:59.039Z,37.83
2018-07-22T12:51:26.827Z,38.58
2018-07-22T12:53:54.613Z,39.21
2018-07-22T12:56:22.386Z,39.02
2018-07-22T12:58:50.218Z,39.98
2018-07-22T13:01:17.994Z,40.35
2018-07-22T13:03:45.786Z,40.70
2018-07-22T13:06:13.569Z,39.52
2018-07-22T13:08:41.347Z,38.75
2018-07-22T13:11:09.180Z,39.97
2018-07-22T13:13:36.965Z,38.84
2018-07-22T13:16:04.787Z,38.78
2018-07-22T13:18:32.630Z,39.23
2018-07-22T13:21:00.717Z,39.17
2018-07-22T13:23:28.490Z,39.62
2018-07-22T13:25:56.269Z,38.76
2018-07-22T13:28:24.067Z,38.33
2018-07-22T13:30:52.249Z,39.03
2018-07-22T13:33:20.158Z,39.50
2018-07-22T13:35:47.969Z,39.88
2018-07-22T13:38:15.799Z,39.33
2018-07-22T13:40:43.549Z,39.13
2018-07-22T13:43:11.374Z,38.90
2018-07-22T13:45:39.294Z,39.26
2018-07-22T13:48:07.189Z,39.99
2018-07-22T13:50:34.977Z,39.58
2018-07-22T13:53:02.738Z,38.72
2018-07-22T13:55:30.518Z,38.54
2018-07-22T13:57:58.287Z,38.60
2018-07-22T14:00:26.108Z,38.77
2018-07-22T14:02:53.901Z,38.69
2018-07-22T14:05:21.706Z,38.99
2018-07-22T14:07:49.510Z,37.92
2018-07-22T14:10:17.317Z,36.83
2018-07-22T14:12:45.101Z,36.91
2018-07-22T14:15:12.965Z,37.33
2018-07-22T14:17:40.785Z,37.51
2018-07-22T14:20:08.677Z,37.57
2018-07-22T14:22:36.461Z,37.51
2018-07-22T14:25:04.450Z,38.12
2018-07-22T14:27:32.453Z,38.75
2018-07-22T14:30:00.465Z,38.11
2018-07-22T14:32:28.317Z,38.45
2018-07-22T14:34:56.140Z,38.36
2018-07-22T14:37:24.058Z,38.57
2018-07-22T14:39:51.858Z,37.60
2018-07-22T14:42:19.663Z,37.88
2018-07-22T14:44:47.475Z,37.14
2018-07-22T14:47:15.284Z,36.35
2018-07-22T14:49:43.202Z,36.70
2018-07-22T14:52:10.997Z,37.66
2018-07-22T14:54:38.785Z,37.18
2018-07-22T14:57:06.613Z,36.50
2018-07-22T14:59:34.411Z,36.26
2018-07-22T15:02:02.227Z,36.88
2018-07-22T15:04:30.026Z,36.25
2018-07-22T15:06:57.834Z,36.08
2018-07-22T15:09:25.697Z,36.52
2018-07-22T15:11:53.561Z,36.43
2018-07-22T15:14:21.421Z,36.64
2018-07-22T15:16:49.220Z,36.68
2018-07-22T15:19:17.059Z,36.55
2018-07-22T15:21:44.894Z,36.22
2018-07-22T15:24:12.712Z,35.90
2018-07-22T15:26:40.506Z,35.60
2018-07-22T15:29:08.357Z,35.03
2018-07-22T15:31:36.186Z,35.13
2018-07-22T15:34:04.078Z,35.10
2018-07-22T15:36:31.925Z,35.55
2018-07-22T15:38:59.839Z,35.56
2018-07-22T15:41:27.682Z,35.32
2018-07-22T15:43:55.644Z,35.31
2018-07-22T15:46:23.478Z,35.41
2018-07-22T15:48:51.283Z,35.34
2018-07-22T15:51:19.082Z,35.37
2018-07-22T15:53:46.975Z,35.29
2018-07-22T15:56:14.862Z,33.99
2018-07-22T15:58:42.675Z,33.34
2018-07-22T16:01:10.541Z,32.59
2018-07-22T16:03:38.390Z,32.95
2018-07-22T16:06:06.175Z,32.43
2018-07-22T16:08:34.246Z,31.45
2018-07-22T16:11:02.010Z,30.08
2018-07-22T16:13:29.789Z,29.54
2018-07-22T16:15:57.606Z,28.93
2018-07-22T16:18:25.461Z,27.75
2018-07-22T16:20:53.272Z,27.42
2018-07-22T16:23:21.071Z,26.56
2018-07-22T16:25:48.850Z,26.17
2018-07-22T16:28:16.617Z,25.56
2018-07-22T16:30:44.427Z,25.48
2018-07-22T16:33:12.206Z,26.30
2018-07-22T16:35:39.995Z,26.64
2018-07-22T16:38:07.782Z,25.94
2018-07-22T16:40:35.585Z,25.47
2018-07-22T16:43:03.377Z,26.12
2018-07-22T16:45:31.479Z,26.21
2018-07-22T16:47:59.245Z,26.34
2018-07-22T16:50:27.125Z,26.54
2018-07-22T16:52:54.877Z,26.81
2018-07-22T16:55:22.652Z,27.18
2018-07-22T16:57:50.398Z,27.45
2018-07-22T17:00:18.285Z,27.04
2018-07-22T17:02:46.034Z,26.92
2018-07-22T17:05:13.810Z,27.07
2018-07-22T17:07:41.611Z,27.10
2018-07-22T17:10:09.450Z,27.07
2018-07-22T17:12:37.196Z,26.78
2018-07-22T17:15:05.001Z,27.03
2018-07-22T17:17:32.770Z,26.53
2018-07-22T17:20:00.576Z,25.51
2018-07-22T17:22:28.353Z,25.48
2018-07-22T17:24:56.122Z,25.78
2018-07-22T17:27:23.877Z,25.87
2018-07-22T17:29:51.636Z,26.27
2018-07-22T17:32:19.605Z,26.50
2018-07-22T17:34:47.435Z,25.82
2018-07-22T17:37:15.242Z,26.26
2018-07-22T17:39:43.320Z,26.13
2018-07-22T17:42:11.078Z,25.83
2018-07-22T17:44:38.917Z,25.90
2018-07-22T17:47:06.671Z,25.59
2018-07-22T17:49:34.452Z,25.79
2018-07-22T17:52:02.234Z,25.73
2018-07-22T17:54:30.001Z,26.00
2018-07-22T17:56:57.761Z,25.89
2018-07-22T17:59:25.625Z,25.73
2018-07-22T18:01:53.434Z,25.11
2018-07-22T18:04:21.218Z,24.91
2018-07-22T18:06:49.106Z,25.06
2018-07-22T18:09:16.950Z,25.27
2018-07-22T18:11:44.781Z,25.42
2018-07-22T18:14:12.666Z,25.56
2018-07-22T18:16:40.532Z,26.05
2018-07-22T18:19:08.446Z,26.07
2018-07-22T18:21:36.319Z,25.95
2018-07-22T18:24:04.208Z,25.89
2018-07-22T18:26:32.128Z,26.05
2018-07-22T18:28:59.992Z,25.95
2018-07-22T18:31:27.794Z,26.14
2018-07-22T18:33:55.698Z,26.14
2018-07-22T18:36:23.843Z,26.14
2018-07-22T18:38:51.723Z,26.17
2018-07-22T18:41:19.558Z,26.18
2018-07-22T18:43:47.395Z,25.16
2018-07-22T18:46:15.320Z,24.58
2018-07-22T18:48:43.204Z,24.60
2018-07-22T18:51:11.087Z,24.72
2018-07-22T18:53:39.310Z,24.88
2018-07-22T18:56:07.219Z,24.79
2018-07-22T18:58:35.120Z,24.73
2018-07-22T19:01:03.007Z,24.62
2018-07-22T19:03:30.873Z,24.51
2018-07-22T19:05:58.750Z,24.76
2018-07-22T19:08:26.622Z,24.63
2018-07-22T19:10:54.551Z,24.74
2018-07-22T19:13:22.377Z,24.74
2018-07-22T19:15:50.229Z,24.72
2018-07-22T19:18:18.086Z,24.56
2018-07-22T19:20:45.919Z,24.29
2018-07-22T19:23:13.798Z,24.72
2018-07-22T19:25:41.651Z,24.72
2018-07-22T19:28:09.563Z,24.48
2018-07-22T19:30:37.469Z,24.66
2018-07-22T19:33:05.375Z,24.28
2018-07-22T19:35:33.280Z,24.48
2018-07-22T19:38:01.190Z,24.65
2018-07-22T19:40:29.096Z,24.66
2018-07-22T19:42:57.000Z,24.82
2018-07-22T19:45:24.873Z,24.93
2018-07-22T19:47:52.753Z,25.01
2018-07-22T19:50:20.593Z,25.35
2018-07-22T19:52:48.448Z,25.48
2018-07-22T19:55:16.337Z,25.70
2018-07-22T19:57:44.357Z,25.85
2018-07-22T20:00:12.552Z,25.79
2018-07-22T20:02:40.434Z,25.93
2018-07-22T20:05:08.317Z,25.71
2018-07-22T20:07:36.215Z,25.57
2018-07-22T20:10:04.473Z,25.45
2018-07-22T20:12:32.431Z,25.54
2018-07-22T20:15:00.292Z,25.19
2018-07-22T20:17:28.206Z,24.99
2018-07-22T20:19:56.053Z,24.93
2018-07-22T20:22:23.909Z,24.92
2018-07-22T20:24:51.804Z,24.95
2018-07-22T20:27:19.681Z,24.97
2018-07-22T20:29:47.537Z,25.06
2018-07-22T20:32:15.380Z,25.02
2018-07-22T20:34:43.289Z,24.53
2018-07-22T20:37:11.218Z,24.71
2018-07-22T20:39:39.093Z,24.82
2018-07-22T20:42:07.005Z,24.70
2018-07-22T20:44:34.904Z,24.33
2018-07-22T20:47:02.828Z,24.48
2018-07-22T20:49:30.657Z,24.57
2018-07-22T20:51:58.545Z,24.60
2018-07-22T20:54:26.469Z,24.74
2018-07-22T20:56:54.419Z,24.92
2018-07-22T20:59:22.344Z,24.89
2018-07-22T21:01:50.184Z,24.87
2018-07-22T21:04:18.033Z,24.94
2018-07-22T21:06:45.882Z,25.08
2018-07-22T21:09:13.710Z,25.06
2018-07-22T21:11:52.626Z,25.00
2018-07-22T21:14:20.411Z,24.87
2018-07-22T21:16:48.283Z,24.76
2018-07-22T21:19:16.137Z,24.44
2018-07-22T21:21:44.010Z,24.62
2018-07-22T21:24:12.197Z,24.65
2018-07-22T21:26:40.051Z,24.45
2018-07-22T21:29:07.909Z,24.32
2018-07-22T21:31:35.762Z,24.38
2018-07-22T21:34:03.622Z,24.10
2018-07-22T21:36:31.474Z,24.16
2018-07-22T21:38:59.302Z,24.16
2018-07-22T21:41:27.142Z,24.19
2018-07-22T21:43:54.958Z,24.35
2018-07-22T21:46:22.761Z,24.31
2018-07-22T21:48:50.561Z,24.40
2018-07-22T21:51:18.381Z,24.55
2018-07-22T21:53:46.201Z,24.40
2018-07-22T21:56:14.077Z,24.44
2018-07-22T21:58:41.886Z,24.47
2018-07-22T22:01:09.728Z,24.25
2018-07-22T22:03:37.487Z,24.06
2018-07-22T22:06:05.305Z,24.22
2018-07-22T22:08:33.200Z,24.01
2018-07-22T22:11:01.022Z,23.58
2018-07-22T22:13:28.827Z,23.84
2018-07-22T22:15:56.673Z,23.95
2018-07-22T22:18:24.494Z,24.04
2018-07-22T22:20:52.421Z,24.02
2018-07-22T22:23:20.282Z,23.49
2018-07-22T22:25:48.109Z,23.18
2018-07-22T22:28:15.956Z,22.51
2018-07-22T22:30:43.810Z,22.49
2018-07-22T22:33:11.674Z,22.70
2018-07-22T22:35:39.505Z,22.98
2018-07-22T22:38:07.324Z,23.42
2018-07-22T22:40:35.274Z,23.50
2018-07-22T22:43:03.130Z,23.61
2018-07-22T22:45:30.926Z,23.95
2018-07-22T22:47:58.825Z,24.18
2018-07-22T22:50:26.654Z,24.23
2018-07-22T22:52:54.470Z,24.13
2018-07-22T22:55:22.302Z,23.95
2018-07-22T22:58:01.249Z,24.31
2018-07-22T23:00:29.149Z,24.41
2018-07-22T23:02:56.956Z,24.12
2018-07-22T23:05:25.083Z,23.60
2018-07-22T23:07:52.888Z,23.73
2018-07-22T23:10:20.694Z,23.43
2018-07-22T23:12:48.489Z,23.19
2018-07-22T23:15:16.312Z,23.05
2018-07-22T23:17:44.137Z,22.76
2018-07-22T23:20:11.954Z,22.78
2018-07-22T23:22:39.778Z,22.84
2018-07-22T23:25:07.674Z,22.36
2018-07-22T23:27:35.501Z,22.18
2018-07-22T23:30:03.438Z,22.05
2018-07-22T23:32:31.299Z,21.63
2018-07-22T23:34:59.138Z,21.23
2018-07-22T23:37:26.981Z,21.10
2018-07-22T23:39:55.033Z,21.02
2018-07-22T23:42:22.855Z,21.09
2018-07-22T23:44:50.688Z,21.27
2018-07-22T23:47:18.517Z,21.25
2018-07-22T23:49:46.342Z,21.18
2018-07-22T23:52:20.765Z,21.24
2018-07-22T23:54:48.585Z,21.37
2018-07-22T23:57:16.409Z,21.44
2018-07-22T23:59:44.259Z,21.10
